Time;durP1;ratioP1;P1;durP2;ratioP2;P2;SDS_P1;SDS_P2;PMS_P1;PMS_P2;Temp;Humidity;BMP_temperature;BMP_pressure;BME280_temperature;BME280_humidity;BME280_pressure;Samples;Min_cycle;Max_cycle;Signal;HPM_P1;HPM_P2
2021/05/26 00:00:09;;;;;;;17.33;12.10;;;16.50;64.20;;;;;;6150842;23;20383;-56
2021/05/26 00:02:36;;;;;;;14.20;9.88;;;16.40;64.00;;;;;;6151145;23;20350;-57
2021/05/26 00:05:03;;;;;;;14.30;9.18;;;16.40;64.40;;;;;;6124800;23;20045;-57
2021/05/26 00:07:29;;;;;;;9.10;5.32;;;16.40;64.30;;;;;;6151673;23;20021;-58
2021/05/26 00:09:54;;;;;;;12.32;8.30;;;16.40;63.30;;;;;;6150356;23;20018;-57
2021/05/26 00:12:20;;;;;;;10.95;6.78;;;16.30;64.20;;;;;;6125483;23;20017;-56
2021/05/26 00:14:46;;;;;;;9.32;6.30;;;16.30;64.00;;;;;;6150313;23;20049;-56
2021/05/26 00:17:12;;;;;;;10.38;6.63;;;16.30;64.50;;;;;;6152490;23;20010;-57
2021/05/26 00:19:41;;;;;;;9.88;6.95;;;16.20;64.00;;;;;;6150975;23;20063;-57
2021/05/26 00:22:07;;;;;;;12.45;7.03;;;16.20;64.30;;;;;;6151100;23;20077;-57
2021/05/26 00:24:33;;;;;;;13.52;5.55;;;16.20;64.10;;;;;;6150373;23;20036;-57
2021/05/26 00:26:59;;;;;;;10.48;6.43;;;16.30;64.30;;;;;;6151570;23;20021;-57
2021/05/26 00:29:24;;;;;;;9.25;5.82;;;16.20;64.20;;;;;;6124157;23;20051;-57
2021/05/26 00:31:50;;;;;;;9.73;6.15;;;16.20;64.90;;;;;;6153509;23;20017;-58
2021/05/26 00:34:16;;;;;;;11.45;6.43;;;16.30;64.70;;;;;;6153298;23;20438;-57
2021/05/26 00:36:42;;;;;;;11.48;6.25;;;16.40;64.60;;;;;;6153243;23;20017;-57
2021/05/26 00:39:08;;;;;;;10.15;5.82;;;16.40;64.20;;;;;;6151481;23;20036;-57
2021/05/26 00:41:34;;;;;;;8.65;5.80;;;16.40;64.30;;;;;;6150601;23;20526;-57
2021/05/26 00:44:00;;;;;;;9.65;6.07;;;16.40;64.10;;;;;;6152281;23;20021;-58
2021/05/26 00:46:26;;;;;;;8.80;4.40;;;16.40;64.00;;;;;;6150385;23;20047;-57
2021/05/26 00:48:52;;;;;;;8.75;5.85;;;16.50;63.70;;;;;;6150674;23;20365;-57
2021/05/26 00:51:18;;;;;;;7.50;4.60;;;16.50;63.30;;;;;;6124216;23;20025;-57
2021/05/26 00:53:43;;;;;;;9.45;5.63;;;16.50;63.20;;;;;;6151266;23;20025;-57
2021/05/26 00:56:10;;;;;;;8.45;4.55;;;16.50;63.20;;;;;;6124381;23;20477;-57
2021/05/26 00:58:36;;;;;;;9.05;5.18;;;16.50;63.30;;;;;;6151205;23;20017;-57
2021/05/26 01:01:03;;;;;;;7.55;4.93;;;16.50;63.20;;;;;;6150014;23;20029;-57
2021/05/26 01:03:29;;;;;;;7.80;4.22;;;16.50;63.10;;;;;;6124480;23;20035;-57
2021/05/26 01:05:55;;;;;;;7.18;4.22;;;16.50;63.10;;;;;;6150775;23;20018;-57
2021/05/26 01:08:21;;;;;;;7.05;4.47;;;16.50;63.10;;;;;;6151347;23;20024;-57
2021/05/26 01:10:47;;;;;;;6.63;3.75;;;16.50;63.10;;;;;;6152072;23;20092;-57
2021/05/26 01:13:14;;;;;;;7.80;4.25;;;16.50;62.90;;;;;;6099774;23;20399;-57
2021/05/26 01:15:41;;;;;;;7.05;4.38;;;16.50;62.80;;;;;;6149810;23;20041;-56
2021/05/26 01:18:19;;;;;;;7.30;4.10;;;16.60;62.70;;;;;;6150435;23;20028;-57
2021/05/26 01:20:46;;;;;;;8.68;4.40;;;16.60;62.50;;;;;;6151079;23;20101;-57
2021/05/26 01:23:16;;;;;;;7.53;4.05;;;16.70;62.40;;;;;;6151838;23;20191;-56
2021/05/26 01:26:02;;;;;;;6.13;3.90;;;16.70;62.30;;;;;;6150414;23;20017;-56
2021/05/26 01:28:30;;;;;;;5.93;3.88;;;16.70;62.20;;;;;;6149573;23;20023;-57
2021/05/26 01:30:57;;;;;;;5.53;3.50;;;16.50;62.30;;;;;;6150253;23;20064;-57
2021/05/26 01:33:23;;;;;;;7.07;3.13;;;16.50;62.70;;;;;;6150450;23;20518;-57
2021/05/26 01:35:49;;;;;;;7.95;4.03;;;16.50;61.90;;;;;;6150216;23;20027;-57
2021/05/26 01:38:20;;;;;;;4.50;3.22;;;16.50;62.60;;;;;;6152538;23;20017;-57
2021/05/26 01:40:47;;;;;;;6.13;3.75;;;16.50;62.80;;;;;;6150296;23;20339;-56
2021/05/26 01:43:13;;;;;;;5.70;3.90;;;16.60;62.70;;;;;;6150610;23;20374;-57
2021/05/26 01:45:39;;;;;;;5.80;3.38;;;16.60;62.70;;;;;;6151696;23;20358;-57
2021/05/26 01:48:05;;;;;;;6.40;3.35;;;16.70;62.60;;;;;;6152968;23;20018;-57
2021/05/26 01:50:31;;;;;;;5.60;3.38;;;16.80;62.50;;;;;;6153328;23;20014;-57
2021/05/26 01:53:07;;;;;;;6.63;3.53;;;16.80;62.40;;;;;;6123594;23;20101;-57
2021/05/26 01:55:34;;;;;;;6.75;3.45;;;16.60;62.30;;;;;;6149915;23;20029;-57
2021/05/26 01:58:00;;;;;;;6.57;3.58;;;16.60;62.60;;;;;;6150366;23;20024;-57
2021/05/26 02:00:27;;;;;;;5.22;3.05;;;16.60;62.60;;;;;;6151545;23;20013;-57
2021/05/26 02:02:53;;;;;;;6.50;3.28;;;16.50;63.00;;;;;;6150006;23;20520;-57
2021/05/26 02:05:20;;;;;;;11.80;3.42;;;16.50;62.60;;;;;;6151607;23;20041;-57
2021/05/26 02:07:47;;;;;;;7.22;3.65;;;16.50;62.40;;;;;;6151594;23;20451;-56
2021/05/26 02:10:17;;;;;;;3.83;2.90;;;16.60;62.30;;;;;;6150476;23;20045;-57
2021/05/26 02:12:44;;;;;;;4.88;2.63;;;16.70;62.20;;;;;;6151112;23;20013;-56
2021/05/26 02:15:13;;;;;;;4.38;2.83;;;16.70;61.80;;;;;;6150044;23;20013;-57
2021/05/26 02:17:39;;;;;;;6.50;2.42;;;16.60;61.60;;;;;;6150837;23;20026;-56
2021/05/26 02:20:09;;;;;;;7.15;2.80;;;16.50;62.10;;;;;;6150298;23;20017;-56
2021/05/26 02:22:35;;;;;;;4.35;2.97;;;16.50;62.20;;;;;;6152169;23;20018;-56
2021/05/26 02:25:03;;;;;;;4.65;2.40;;;16.50;62.30;;;;;;6125059;23;20121;-56
2021/05/26 02:27:28;;;;;;;5.38;2.58;;;16.50;62.20;;;;;;6150653;23;20028;-56
2021/05/26 02:29:54;;;;;;;5.22;2.92;;;16.60;61.90;;;;;;6152088;23;20077;-56
2021/05/26 02:32:22;;;;;;;4.40;2.58;;;16.60;61.80;;;;;;6152232;23;20052;-56
2021/05/26 02:34:47;;;;;;;3.95;2.22;;;16.50;61.90;;;;;;6152172;23;20036;-57
2021/05/26 02:37:13;;;;;;;5.00;2.40;;;16.60;62.00;;;;;;6151767;23;20332;-57
2021/05/26 02:39:39;;;;;;;3.78;2.20;;;16.60;61.60;;;;;;6151718;23;20024;-57
2021/05/26 02:42:05;;;;;;;4.43;2.30;;;16.60;61.80;;;;;;6151730;23;20014;-58
2021/05/26 02:44:30;;;;;;;4.32;2.10;;;16.60;62.10;;;;;;6153551;23;20014;-57
2021/05/26 02:46:56;;;;;;;4.28;2.00;;;16.50;62.00;;;;;;6151913;23;20156;-57
2021/05/26 02:49:22;;;;;;;5.57;2.42;;;16.40;61.70;;;;;;6151769;23;20014;-57
2021/05/26 02:51:48;;;;;;;4.47;2.67;;;16.20;62.20;;;;;;6151746;23;20049;-57
2021/05/26 02:54:14;;;;;;;3.47;2.00;;;16.20;62.50;;;;;;6151500;23;20076;-57
2021/05/26 02:56:40;;;;;;;5.13;2.00;;;16.10;62.70;;;;;;6153941;23;20084;-56
2021/05/26 02:59:07;;;;;;;5.85;2.40;;;16.10;62.80;;;;;;6153785;23;20019;-56
2021/05/26 03:01:34;;;;;;;3.55;2.15;;;16.20;62.50;;;;;;6153444;23;20017;-56
2021/05/26 03:04:00;;;;;;;5.70;2.00;;;16.10;62.60;;;;;;6151191;23;20021;-56
2021/05/26 03:06:27;;;;;;;3.20;2.08;;;16.20;62.70;;;;;;6153577;23;20021;-56
2021/05/26 03:08:53;;;;;;;4.63;2.05;;;16.20;62.70;;;;;;6153218;23;20347;-56
2021/05/26 03:11:18;;;;;;;3.55;1.73;;;16.20;62.70;;;;;;6125573;23;20025;-56
2021/05/26 03:13:44;;;;;;;4.75;1.90;;;16.20;62.60;;;;;;6152166;23;20014;-56
2021/05/26 03:16:11;;;;;;;2.95;2.00;;;16.20;62.40;;;;;;6151883;23;20017;-56
2021/05/26 03:18:37;;;;;;;4.20;1.48;;;16.20;62.30;;;;;;6151966;23;20029;-56
2021/05/26 03:21:04;;;;;;;3.10;1.52;;;16.30;62.60;;;;;;6151185;23;20118;-57
2021/05/26 03:23:30;;;;;;;3.60;1.70;;;16.30;62.70;;;;;;6153726;23;20009;-57
2021/05/26 03:25:55;;;;;;;4.50;1.70;;;16.30;62.50;;;;;;6153475;23;20023;-59
2021/05/26 03:28:21;;;;;;;4.43;1.58;;;16.30;62.30;;;;;;6151465;23;20010;-56
2021/05/26 03:30:47;;;;;;;3.40;1.73;;;16.30;61.90;;;;;;6151748;23;20053;-56
2021/05/26 03:33:14;;;;;;;4.50;2.22;;;16.40;62.20;;;;;;6152671;23;20013;-56
2021/05/26 03:35:42;;;;;;;2.65;1.58;;;16.30;62.30;;;;;;6125068;23;20072;-57
2021/05/26 03:38:10;;;;;;;5.18;1.63;;;16.30;62.30;;;;;;6153113;23;20378;-56
2021/05/26 03:40:36;;;;;;;4.28;1.80;;;16.40;62.40;;;;;;6150865;23;20014;-56
2021/05/26 03:43:03;;;;;;;3.78;1.40;;;16.40;62.40;;;;;;6153573;23;20076;-56
2021/05/26 03:45:29;;;;;;;3.75;1.75;;;16.50;62.20;;;;;;6151505;23;20021;-56
2021/05/26 03:47:57;;;;;;;3.45;1.98;;;16.60;61.90;;;;;;6153079;23;20088;-56
2021/05/26 03:50:23;;;;;;;2.95;1.40;;;16.50;61.80;;;;;;6151217;23;20017;-56
2021/05/26 03:52:50;;;;;;;3.40;1.35;;;16.50;61.80;;;;;;6150979;23;20017;-56
2021/05/26 03:55:19;;;;;;;2.30;1.55;;;16.50;61.80;;;;;;6152838;23;20037;-56
2021/05/26 03:57:45;;;;;;;3.80;1.73;;;16.50;62.30;;;;;;6153536;23;20105;-56
2021/05/26 04:00:14;;;;;;;2.75;1.38;;;16.50;62.20;;;;;;6151558;23;20013;-56
2021/05/26 04:02:40;;;;;;;3.25;1.33;;;16.50;62.10;;;;;;6150865;23;20466;-56
2021/05/26 04:05:06;;;;;;;4.20;1.25;;;16.50;62.20;;;;;;6150860;23;20024;-56
2021/05/26 04:07:33;;;;;;;4.45;1.85;;;16.50;62.30;;;;;;6151608;23;20757;-56
2021/05/26 04:09:59;;;;;;;3.47;1.42;;;16.50;62.20;;;;;;6153818;23;20462;-56
2021/05/26 04:12:27;;;;;;;3.25;1.25;;;16.50;62.30;;;;;;6152676;23;20014;-56
2021/05/26 04:14:56;;;;;;;3.15;1.35;;;16.50;62.30;;;;;;6151435;23;20655;-56
2021/05/26 04:17:23;;;;;;;3.70;1.35;;;16.40;62.30;;;;;;6152209;23;20013;-56
2021/05/26 04:19:49;;;;;;;2.72;1.10;;;16.40;62.30;;;;;;6151145;23;20017;-56
2021/05/26 04:22:19;;;;;;;2.33;1.10;;;16.30;62.40;;;;;;6152666;23;20017;-56
2021/05/26 04:24:46;;;;;;;5.07;2.28;;;16.30;62.60;;;;;;6150537;23;20084;-56
2021/05/26 04:27:12;;;;;;;2.63;1.45;;;16.20;63.00;;;;;;6153304;23;20020;-57
2021/05/26 04:29:38;;;;;;;2.78;1.58;;;16.20;62.70;;;;;;6152455;23;20096;-57
2021/05/26 04:32:05;;;;;;;5.80;1.45;;;16.10;62.60;;;;;;6151523;23;20021;-56
2021/05/26 04:34:30;;;;;;;2.45;1.23;;;16.10;62.80;;;;;;6152078;23;20347;-57
2021/05/26 04:36:56;;;;;;;2.30;1.20;;;16.10;63.30;;;;;;6151910;23;20072;-57
2021/05/26 04:39:22;;;;;;;3.25;1.42;;;16.10;62.80;;;;;;6151943;23;20092;-57
2021/05/26 04:41:48;;;;;;;2.40;1.35;;;16.00;62.70;;;;;;6124785;23;20013;-57
2021/05/26 04:44:14;;;;;;;4.47;1.25;;;16.00;63.00;;;;;;6126553;23;20440;-57
2021/05/26 04:46:39;;;;;;;3.17;1.52;;;15.90;63.10;;;;;;6150522;23;20020;-57
2021/05/26 04:49:05;;;;;;;2.63;1.38;;;15.90;63.20;;;;;;6150719;23;20033;-57
2021/05/26 04:51:31;;;;;;;6.70;1.42;;;15.90;63.40;;;;;;6149938;23;20108;-57
2021/05/26 04:53:57;;;;;;;3.40;1.48;;;15.80;63.60;;;;;;6150805;23;20100;-57
2021/05/26 04:56:22;;;;;;;3.88;2.08;;;15.70;63.80;;;;;;6150158;23;20009;-57
2021/05/26 04:58:48;;;;;;;2.72;1.15;;;15.60;64.00;;;;;;6153388;23;20085;-57
2021/05/26 05:01:16;;;;;;;2.40;1.02;;;15.50;64.40;;;;;;6150739;23;20336;-56
2021/05/26 05:03:42;;;;;;;4.07;1.45;;;15.50;64.60;;;;;;6150861;23;20024;-56
2021/05/26 05:06:08;;;;;;;2.58;1.02;;;15.60;65.00;;;;;;6150385;23;20013;-56
2021/05/26 05:08:34;;;;;;;4.05;1.20;;;15.70;64.10;;;;;;6152350;23;20018;-55
2021/05/26 05:11:00;;;;;;;3.28;1.77;;;15.80;63.90;;;;;;6150340;23;20024;-56
2021/05/26 05:13:26;;;;;;;3.28;1.15;;;15.70;63.80;;;;;;6152152;23;20009;-56
2021/05/26 05:15:52;;;;;;;3.22;2.03;;;15.70;64.00;;;;;;6151636;23;20060;-56
2021/05/26 05:18:18;;;;;;;4.50;1.63;;;15.70;64.00;;;;;;6151784;23;20072;-57
2021/05/26 05:20:43;;;;;;;3.72;1.67;;;15.60;64.00;;;;;;6151123;23;20013;-57
2021/05/26 05:23:09;;;;;;;2.40;1.00;;;15.60;64.20;;;;;;6150781;23;20024;-57
2021/05/26 05:25:35;;;;;;;2.13;1.67;;;15.50;64.40;;;;;;6151707;23;20018;-56
2021/05/26 05:28:01;;;;;;;4.20;1.70;;;15.40;64.60;;;;;;6150625;23;20049;-58
2021/05/26 05:30:26;;;;;;;1.85;1.10;;;15.40;64.90;;;;;;6150740;23;20018;-56
2021/05/26 05:32:52;;;;;;;7.20;2.00;;;15.40;64.90;;;;;;6150494;23;20120;-56
2021/05/26 05:35:19;;;;;;;4.53;2.50;;;15.50;64.70;;;;;;6150101;23;20097;-57
2021/05/26 05:37:45;;;;;;;5.53;2.10;;;15.50;64.80;;;;;;6150390;23;20320;-57
2021/05/26 05:40:11;;;;;;;4.10;1.92;;;15.10;65.50;;;;;;6151074;23;20017;-58
2021/05/26 05:42:37;;;;;;;5.93;2.20;;;14.70;66.60;;;;;;6151470;23;20045;-59
2021/05/26 05:45:04;;;;;;;6.13;2.95;;;14.50;67.40;;;;;;6150131;23;20024;-58
2021/05/26 05:47:30;;;;;;;6.90;2.83;;;14.50;68.00;;;;;;6124734;23;20116;-58
2021/05/26 05:49:56;;;;;;;5.82;2.33;;;14.30;68.30;;;;;;6150463;23;20486;-58
2021/05/26 05:52:21;;;;;;;7.57;2.13;;;14.30;68.40;;;;;;6150996;23;20024;-57
2021/05/26 05:54:49;;;;;;;4.63;1.52;;;14.20;68.60;;;;;;6151563;23;20041;-58
2021/05/26 05:57:15;;;;;;;7.90;2.70;;;14.10;68.90;;;;;;6151390;23;20092;-59
2021/05/26 05:59:41;;;;;;;5.25;2.45;;;14.10;69.40;;;;;;6150459;23;20021;-57
2021/05/26 06:02:07;;;;;;;5.60;2.47;;;14.10;69.60;;;;;;6150559;23;20014;-57
2021/05/26 06:04:33;;;;;;;4.53;1.65;;;14.00;70.00;;;;;;6153132;23;20020;-58
2021/05/26 06:06:59;;;;;;;6.07;2.15;;;13.90;70.60;;;;;;6151807;23;20458;-57
2021/05/26 06:09:25;;;;;;;5.45;1.67;;;14.00;71.10;;;;;;6153962;23;20340;-58
2021/05/26 06:11:51;;;;;;;8.77;2.92;;;14.00;71.00;;;;;;6127729;23;20022;-57
2021/05/26 06:14:19;;;;;;;4.00;2.08;;;14.00;71.10;;;;;;6152241;23;20013;-58
2021/05/26 06:16:45;;;;;;;5.65;2.50;;;14.00;71.80;;;;;;6152014;23;20026;-58
2021/05/26 06:19:11;;;;;;;6.05;2.80;;;14.00;72.00;;;;;;6152215;23;20670;-59
2021/05/26 06:21:37;;;;;;;7.90;2.97;;;14.00;71.60;;;;;;6153868;23;20020;-57
2021/05/26 06:24:04;;;;;;;7.82;2.50;;;13.80;72.00;;;;;;6151949;23;20021;-59
2021/05/26 06:26:31;;;;;;;6.22;3.60;;;13.70;73.60;;;;;;6152640;23;20045;-57
2021/05/26 06:29:05;;;;;;;6.70;2.22;;;13.70;74.50;;;;;;6151565;23;20032;-57
2021/05/26 06:31:31;;;;;;;6.72;2.90;;;13.70;75.80;;;;;;6152058;23;20014;-57
2021/05/26 06:33:57;;;;;;;7.82;3.88;;;13.80;76.30;;;;;;6153064;23;20024;-58
2021/05/26 06:36:23;;;;;;;11.13;4.13;;;13.80;75.00;;;;;;6154242;23;20013;-58
2021/05/26 06:38:49;;;;;;;14.45;4.20;;;13.80;76.60;;;;;;6151842;23;20025;-58
2021/05/26 06:41:15;;;;;;;13.30;7.10;;;14.10;78.50;;;;;;6150108;23;20435;-58
2021/05/26 06:43:41;;;;;;;31.92;17.23;;;14.50;78.00;;;;;;6125340;23;20017;-59
2021/05/26 06:46:07;;;;;;;20.52;13.95;;;14.70;76.50;;;;;;6151623;23;20017;-58
2021/05/26 06:48:33;;;;;;;45.55;29.48;;;14.80;74.80;;;;;;6152889;23;20451;-58
2021/05/26 06:50:59;;;;;;;36.75;27.38;;;14.90;74.20;;;;;;6151904;23;20020;-59
2021/05/26 06:53:25;;;;;;;24.52;16.50;;;15.00;74.40;;;;;;6152286;23;20028;-57
2021/05/26 06:55:52;;;;;;;34.90;24.65;;;15.10;73.10;;;;;;6150455;23;20032;-57
2021/05/26 06:58:18;;;;;;;29.65;21.52;;;15.20;72.70;;;;;;6124199;23;20484;-58
2021/05/26 07:00:44;;;;;;;20.83;14.93;;;15.30;71.80;;;;;;6150097;23;20025;-58
2021/05/26 07:03:10;;;;;;;18.60;13.93;;;15.40;70.70;;;;;;6149838;23;20016;-59
2021/05/26 07:05:36;;;;;;;30.15;16.05;;;15.50;70.00;;;;;;6153867;23;20014;-58
2021/05/26 07:08:02;;;;;;;19.77;12.63;;;15.40;69.70;;;;;;6153398;23;20083;-59
2021/05/26 07:10:28;;;;;;;13.50;8.05;;;15.40;69.70;;;;;;6151790;23;20024;-57
2021/05/26 07:12:54;;;;;;;25.23;15.63;;;15.50;69.20;;;;;;6151452;23;20018;-57
2021/05/26 07:15:20;;;;;;;12.77;8.82;;;15.50;69.30;;;;;;6151540;23;20021;-58
2021/05/26 07:17:45;;;;;;;13.52;10.57;;;15.30;68.90;;;;;;6150561;23;20483;-60
2021/05/26 07:20:13;;;;;;;19.88;14.93;;;15.20;68.80;;;;;;6125563;23;20018;-58
2021/05/26 07:22:39;;;;;;;14.57;10.20;;;15.20;70.20;;;;;;6151103;23;20096;-58
2021/05/26 07:25:06;;;;;;;13.63;9.55;;;15.40;70.30;;;;;;6151735;23;20021;-58
2021/05/26 07:27:32;;;;;;;7.65;5.68;;;15.50;69.80;;;;;;6151363;23;20039;-57
2021/05/26 07:29:57;;;;;;;14.95;9.48;;;15.70;69.60;;;;;;6150797;23;20530;-59
2021/05/26 07:32:23;;;;;;;9.13;5.82;;;15.80;69.50;;;;;;6152621;23;20020;-57
2021/05/26 07:34:49;;;;;;;12.07;7.15;;;15.80;68.90;;;;;;6150942;23;20025;-58
2021/05/26 07:37:15;;;;;;;9.05;5.45;;;15.70;68.70;;;;;;6126746;23;20017;-58
2021/05/26 07:39:41;;;;;;;9.27;5.65;;;15.60;68.10;;;;;;6152093;23;20041;-58
2021/05/26 07:42:07;;;;;;;7.55;5.40;;;15.30;67.70;;;;;;6152026;23;20017;-57
2021/05/26 07:44:34;;;;;;;9.98;4.72;;;15.40;68.60;;;;;;6151453;23;20072;-57
2021/05/26 07:47:00;;;;;;;9.00;4.93;;;15.70;67.90;;;;;;6150429;23;20013;-58
2021/05/26 07:49:26;;;;;;;8.48;5.47;;;15.80;67.50;;;;;;6153174;23;20075;-58
2021/05/26 07:51:54;;;;;;;7.15;3.95;;;15.80;67.60;;;;;;6151111;23;20088;-57
2021/05/26 07:54:23;;;;;;;6.97;4.60;;;15.90;67.30;;;;;;6125559;23;20117;-57
2021/05/26 07:56:50;;;;;;;6.10;3.03;;;15.90;67.40;;;;;;6150955;23;20040;-57
2021/05/26 07:59:16;;;;;;;9.38;3.28;;;16.00;66.80;;;;;;6151014;23;20020;-57
2021/05/26 08:01:42;;;;;;;5.07;2.67;;;16.20;67.20;;;;;;6150862;23;20019;-57
2021/05/26 08:04:09;;;;;;;4.03;1.92;;;16.50;66.30;;;;;;6151083;23;20016;-57
2021/05/26 08:06:35;;;;;;;5.40;1.98;;;16.70;64.80;;;;;;6149961;23;20024;-57
2021/05/26 08:09:02;;;;;;;5.43;2.60;;;16.90;63.50;;;;;;6151384;23;20049;-57
2021/05/26 08:11:29;;;;;;;3.88;2.15;;;16.90;63.50;;;;;;6152340;23;20021;-57
2021/05/26 08:13:57;;;;;;;3.38;1.50;;;17.10;63.70;;;;;;6124729;23;20076;-57
2021/05/26 08:16:26;;;;;;;2.70;1.50;;;17.00;63.20;;;;;;6150412;23;20088;-57
2021/05/26 08:18:52;;;;;;;5.72;1.70;;;16.90;62.90;;;;;;6151476;23;20071;-57
2021/05/26 08:21:18;;;;;;;2.83;1.30;;;16.70;63.90;;;;;;6150357;23;20100;-57
2021/05/26 08:23:45;;;;;;;3.90;1.48;;;16.70;65.10;;;;;;6152022;23;20064;-58
2021/05/26 08:26:14;;;;;;;3.67;1.58;;;16.80;64.50;;;;;;6151495;23;20018;-57
2021/05/26 08:28:41;;;;;;;3.90;1.17;;;17.00;64.20;;;;;;6152192;23;20083;-57
2021/05/26 08:31:07;;;;;;;8.93;1.55;;;17.10;64.10;;;;;;6124464;23;20467;-57
2021/05/26 08:33:33;;;;;;;8.45;1.55;;;17.10;62.80;;;;;;6151467;23;20068;-58
2021/05/26 08:35:58;;;;;;;6.03;0.80;;;16.90;62.90;;;;;;6126935;23;20017;-57
2021/05/26 08:38:24;;;;;;;3.90;1.00;;;16.80;63.00;;;;;;6150657;23;20364;-57
2021/05/26 08:40:50;;;;;;;3.20;1.38;;;16.70;63.40;;;;;;6151351;23;20021;-57
2021/05/26 08:43:16;;;;;;;2.63;1.20;;;16.70;62.70;;;;;;6150962;23;20073;-57
2021/05/26 08:45:43;;;;;;;3.50;1.10;;;16.70;62.20;;;;;;6149890;23;20017;-57
2021/05/26 08:48:12;;;;;;;4.60;0.82;;;16.60;62.20;;;;;;6150232;23;20080;-57
2021/05/26 08:50:40;;;;;;;1.13;0.60;;;16.70;61.80;;;;;;6150493;23;20017;-57
2021/05/26 08:53:06;;;;;;;2.25;0.88;;;17.00;62.20;;;;;;6150304;23;20428;-57
2021/05/26 08:55:32;;;;;;;2.47;1.15;;;17.20;61.90;;;;;;6150222;23;20097;-57
2021/05/26 08:58:01;;;;;;;1.27;0.70;;;17.50;61.00;;;;;;6152886;23;20387;-56
2021/05/26 09:00:26;;;;;;;2.58;0.90;;;17.70;60.30;;;;;;6150405;23;20036;-57
2021/05/26 09:02:52;;;;;;;5.55;1.10;;;17.80;60.00;;;;;;6151543;23;20019;-57
2021/05/26 09:05:26;;;;;;;4.55;1.20;;;17.80;59.90;;;;;;6149104;23;20017;-57
2021/05/26 09:07:52;;;;;;;3.88;1.48;;;17.80;58.80;;;;;;6150722;23;20010;-57
2021/05/26 09:10:18;;;;;;;3.33;1.48;;;17.70;59.60;;;;;;6150765;23;20022;-57
2021/05/26 09:12:45;;;;;;;3.08;1.35;;;17.70;59.40;;;;;;6150696;23;20021;-57
2021/05/26 09:15:21;;;;;;;6.82;1.40;;;17.70;60.00;;;;;;6150801;23;20359;-57
2021/05/26 09:17:56;;;;;;;4.80;0.90;;;17.70;59.60;;;;;;6150376;23;20021;-57
2021/05/26 09:20:27;;;;;;;1.33;0.57;;;17.70;58.70;;;;;;6150819;23;20018;-57
2021/05/26 09:23:13;;;;;;;4.25;0.90;;;17.40;58.10;;;;;;6150222;23;20017;-57
2021/05/26 09:25:51;;;;;;;1.67;0.90;;;17.20;59.40;;;;;;6150511;23;20010;-57
2021/05/26 09:28:34;;;;;;;4.00;0.80;;;17.20;59.80;;;;;;6152687;23;20339;-57
2021/05/26 09:31:06;;;;;;;2.65;1.27;;;17.30;59.40;;;;;;6152384;23;20021;-57
2021/05/26 09:33:44;;;;;;;1.40;0.70;;;17.50;59.00;;;;;;6150313;23;20154;-57
2021/05/26 09:36:24;;;;;;;2.47;0.77;;;17.90;58.70;;;;;;6150477;23;20018;-57
2021/05/26 09:38:54;;;;;;;1.58;0.70;;;18.20;57.90;;;;;;6153588;23;20045;-56
2021/05/26 09:41:34;;;;;;;2.63;0.68;;;18.20;57.60;;;;;;6152225;23;20017;-57
2021/05/26 09:44:11;;;;;;;2.47;0.52;;;18.20;58.10;;;;;;6126962;23;20045;-57
2021/05/26 09:46:42;;;;;;;1.25;0.50;;;18.20;56.80;;;;;;6154490;23;20014;-57
2021/05/26 09:49:08;;;;;;;1.05;0.50;;;18.20;56.50;;;;;;6152250;23;20017;-58
2021/05/26 09:51:36;;;;;;;2.03;0.55;;;18.20;56.30;;;;;;6152345;23;20254;-58
2021/05/26 09:54:13;;;;;;;1.50;0.50;;;18.10;56.70;;;;;;6152455;23;20017;-57
2021/05/26 09:56:39;;;;;;;1.80;0.40;;;18.30;56.40;;;;;;6152798;23;20144;-57
2021/05/26 09:59:06;;;;;;;3.85;0.60;;;18.60;56.00;;;;;;6152542;23;20024;-57
2021/05/26 10:01:32;;;;;;;1.73;0.32;;;18.70;55.70;;;;;;6152133;23;20017;-57
2021/05/26 10:03:59;;;;;;;2.72;0.50;;;18.70;55.50;;;;;;6125986;23;20022;-57
2021/05/26 10:06:27;;;;;;;1.45;0.60;;;18.80;55.20;;;;;;6152113;23;20013;-57
2021/05/26 10:08:55;;;;;;;2.13;0.50;;;18.80;54.80;;;;;;6151858;23;20400;-57
2021/05/26 10:11:22;;;;;;;0.70;0.22;;;18.90;54.20;;;;;;6152244;23;20017;-57
2021/05/26 10:13:50;;;;;;;1.50;0.40;;;18.70;53.30;;;;;;6127756;23;20021;-57
2021/05/26 10:16:18;;;;;;;2.17;0.50;;;18.60;53.80;;;;;;6152268;23;20072;-57
2021/05/26 10:18:45;;;;;;;4.28;0.73;;;18.60;53.70;;;;;;6152592;23;20022;-57
2021/05/26 10:21:14;;;;;;;2.90;0.40;;;18.70;53.40;;;;;;6152398;23;20079;-57
2021/05/26 10:23:41;;;;;;;2.80;0.73;;;18.80;53.40;;;;;;6152073;23;20693;-57
2021/05/26 10:26:07;;;;;;;2.58;0.70;;;18.90;53.70;;;;;;6152313;23;20017;-61
2021/05/26 10:28:33;;;;;;;1.60;0.45;;;18.90;53.20;;;;;;6153285;23;20028;-61
2021/05/26 10:31:02;;;;;;;2.53;0.32;;;18.80;52.30;;;;;;6125875;23;20029;-62
2021/05/26 10:33:39;;;;;;;2.00;0.55;;;18.70;52.00;;;;;;6153778;23;20024;-61
2021/05/26 10:36:08;;;;;;;2.33;0.40;;;18.70;52.30;;;;;;6151552;23;20779;-62
2021/05/26 10:39:01;;;;;;;2.58;1.20;;;18.50;52.30;;;;;;6128048;23;20096;-62
2021/05/26 10:41:52;;;;;;;2.50;0.80;;;18.40;51.50;;;;;;6151811;23;20017;-61
2021/05/26 10:44:19;;;;;;;1.20;0.30;;;18.40;51.20;;;;;;6153159;23;20014;-62
2021/05/26 10:46:48;;;;;;;1.15;0.40;;;18.30;51.10;;;;;;6151974;23;20432;-61
2021/05/26 10:49:14;;;;;;;4.05;0.50;;;18.00;51.20;;;;;;6151248;23;20017;-61
2021/05/26 10:51:52;;;;;;;1.73;0.50;;;17.80;51.80;;;;;;6152870;23;20027;-61
2021/05/26 10:54:40;;;;;;;2.42;0.45;;;17.60;51.60;;;;;;6151648;23;20355;-62
2021/05/26 10:57:09;;;;;;;6.60;0.90;;;17.50;51.40;;;;;;6128020;23;20023;-61
2021/05/26 10:59:36;;;;;;;2.00;0.60;;;17.20;51.80;;;;;;6152141;23;20048;-61
2021/05/26 11:02:02;;;;;;;1.20;0.40;;;17.10;52.30;;;;;;6152177;23;20088;-61
2021/05/26 11:04:29;;;;;;;5.75;0.50;;;16.90;53.10;;;;;;6151448;23;20010;-62
2021/05/26 11:07:22;;;;;;;1.33;0.60;;;16.70;53.10;;;;;;6153508;23;20017;-60
2021/05/26 11:10:05;;;;;;;1.63;0.40;;;16.80;53.80;;;;;;6152663;23;20017;-61
2021/05/26 11:12:56;;;;;;;7.10;1.05;;;16.80;54.20;;;;;;6125193;23;20343;-61
2021/05/26 11:15:41;;;;;;;1.33;0.30;;;17.00;54.50;;;;;;6151805;23;20344;-60
2021/05/26 11:20:52;;;;;;;4.15;0.57;;;17.30;53.40;;;;;;6151386;23;20439;-60
2021/05/26 11:23:18;;;;;;;6.05;0.70;;;17.30;52.60;;;;;;6151339;23;20014;-61
2021/05/26 11:25:51;;;;;;;2.25;0.40;;;17.40;52.30;;;;;;6153190;23;20018;-61
2021/05/26 11:28:29;;;;;;;5.25;0.60;;;17.30;52.00;;;;;;6124784;23;20100;-61
2021/05/26 11:31:05;;;;;;;3.88;0.90;;;17.20;52.90;;;;;;6152112;23;20014;-60
2021/05/26 11:33:31;;;;;;;3.33;0.75;;;17.10;53.50;;;;;;6152275;23;20458;-60
2021/05/26 11:36:09;;;;;;;3.63;0.85;;;17.10;53.70;;;;;;6151202;23;20013;-62
2021/05/26 11:38:34;;;;;;;2.17;0.60;;;17.10;54.10;;;;;;6151200;23;20013;-61
2021/05/26 11:41:01;;;;;;;3.03;0.90;;;17.20;54.30;;;;;;6153260;23;20044;-62
2021/05/26 11:43:31;;;;;;;2.25;0.80;;;17.30;54.70;;;;;;6153097;23;20448;-62
2021/05/26 11:46:08;;;;;;;4.18;0.98;;;17.40;55.00;;;;;;6151124;23;20010;-62
2021/05/26 11:48:35;;;;;;;2.72;0.82;;;17.50;55.00;;;;;;6152028;23;20044;-62
2021/05/26 11:51:00;;;;;;;4.05;0.80;;;17.60;55.10;;;;;;6100079;23;20015;-62
2021/05/26 11:53:27;;;;;;;3.97;0.80;;;17.70;54.80;;;;;;6151424;23;20100;-62
2021/05/26 11:55:59;;;;;;;1.02;0.60;;;17.60;53.70;;;;;;6126474;23;20454;-61
2021/05/26 11:58:35;;;;;;;7.90;1.25;;;17.60;53.60;;;;;;6151378;23;20018;-62
2021/05/26 12:01:03;;;;;;;1.42;0.70;;;17.60;52.90;;;;;;6152611;23;20072;-61
2021/05/26 12:03:30;;;;;;;2.53;0.70;;;17.50;52.50;;;;;;6151856;23;20045;-61
2021/05/26 12:05:56;;;;;;;3.88;0.95;;;17.40;53.20;;;;;;6151833;23;20444;-57
2021/05/26 12:08:23;;;;;;;4.82;0.88;;;17.20;53.20;;;;;;6150616;23;20056;-58
2021/05/26 12:10:53;;;;;;;5.32;0.90;;;17.20;55.30;;;;;;6150994;23;20017;-57
2021/05/26 12:13:33;;;;;;;2.60;0.82;;;17.30;55.10;;;;;;6150194;23;20509;-57
2021/05/26 12:16:05;;;;;;;4.38;0.82;;;17.30;54.50;;;;;;6152654;23;20448;-57
2021/05/26 12:18:31;;;;;;;5.68;1.80;;;17.40;56.70;;;;;;6088799;23;20093;-57
2021/05/26 12:20:58;;;;;;;7.18;3.33;;;17.60;56.00;;;;;;6064400;23;20028;-57
2021/05/26 12:23:36;;;;;;;13.43;5.00;;;17.70;55.30;;;;;;6089105;23;20121;-57
2021/05/26 12:26:22;;;;;;;9.45;4.85;;;17.70;55.40;;;;;;6088823;23;20043;-57
2021/05/26 12:28:48;;;;;;;11.35;5.43;;;17.80;55.40;;;;;;6088627;23;20022;-57
2021/05/26 12:31:15;;;;;;;16.92;6.43;;;18.00;55.80;;;;;;6089263;23;20445;-57
2021/05/26 12:33:45;;;;;;;14.63;6.72;;;18.00;55.80;;;;;;6088694;23;20014;-57
2021/05/26 12:36:11;;;;;;;18.88;8.45;;;18.10;56.10;;;;;;6089744;23;20015;-57
2021/05/26 12:38:40;;;;;;;15.13;6.53;;;18.10;56.10;;;;;;6089947;23;20443;-57
2021/05/26 12:41:24;;;;;;;5.60;2.28;;;18.10;55.70;;;;;;6088723;23;20908;-62
2021/05/26 12:43:50;;;;;;;;;;;18.10;53.70;;;;;;6089040;23;20360;-63
2021/05/26 12:46:44;;;;;;;12.20;6.20;;;17.90;54.90;;;;;;6088288;23;19917;-63
2021/05/26 12:49:29;;;;;;;15.82;5.38;;;17.80;55.80;;;;;;6113117;23;20021;-63
2021/05/26 12:52:02;;;;;;;12.80;7.28;;;17.90;56.30;;;;;;6152246;23;20089;-63